Pickwick Observed Data For Previous 48 Hours

Caption
Day and Hour Reservoir Elevation (behind dam)* Tailwater Elevation (below dam)* Average Hourly Discharge*
6/18/2019 1 AM CDT 413.17 362.23 40,014
6/18/2019 2 AM CDT 413.10 362.20 39,958
6/18/2019 3 AM CDT 413.16 362.30 40,029
6/18/2019 4 AM CDT 413.21 362.18 40,170
6/18/2019 5 AM CDT 413.08 362.14 40,116
6/18/2019 6 AM CDT 413.03 362.11 39,856
6/18/2019 7 AM CDT 413.05 362.12 40,055
6/18/2019 8 AM CDT 413.02 362.20 39,963
6/18/2019 9 AM CDT 413.09 362.16 40,074
6/18/2019 10 AM CDT 413.03 362.17 40,229
6/18/2019 11 AM CDT 413.06 362.15 40,131
6/18/2019 12 PM CDT 413.05 362.15 40,028
6/18/2019 1 PM CDT 413.09 362.18 40,089
6/18/2019 2 PM CDT 413.20 362.20 40,144
6/18/2019 3 PM CDT 413.26 362.23 40,239
6/18/2019 4 PM CDT 413.28 362.22 40,354
6/18/2019 5 PM CDT 413.29 362.26 40,300
6/18/2019 6 PM CDT 413.42 362.24 40,161
6/18/2019 7 PM CDT 413.55 362.20 40,114
6/18/2019 8 PM CDT 413.57 362.18 40,033
6/18/2019 9 PM CDT 413.65 362.19 39,934
6/18/2019 10 PM CDT 413.68 362.19 39,758
6/18/2019 11 PM CDT 413.65 362.19 40,016
6/19/2019 12 AM CDT 413.67 362.21 39,993
6/19/2019 1 AM CDT 413.67 362.22 40,167
6/19/2019 2 AM CDT 413.62 362.19 39,936
6/19/2019 3 AM CDT 413.53 362.26 39,891
6/19/2019 4 AM CDT 413.57 362.19 39,947
6/19/2019 5 AM CDT 413.48 362.17 40,188
6/19/2019 6 AM CDT 413.47 362.17 40,216
6/19/2019 7 AM CDT 413.45 362.15 40,167
6/19/2019 8 AM CDT 413.45 362.16 40,184
6/19/2019 9 AM CDT 413.40 362.23 39,990
6/19/2019 10 AM CDT 413.42 362.19 39,950
6/19/2019 11 AM CDT 413.52 362.19 40,049
6/19/2019 12 PM CDT 413.51 362.21 40,180
6/19/2019 1 PM CDT 413.52 362.23 40,420
6/19/2019 2 PM CDT 413.54 362.12 40,092
6/19/2019 3 PM CDT 413.65 362.15 40,076
6/19/2019 4 PM CDT 413.69 362.09 40,170
6/19/2019 5 PM CDT 413.76 362.21 40,139
6/19/2019 6 PM CDT 413.82 362.18 40,205
6/19/2019 7 PM CDT 413.83 362.06 40,044
6/19/2019 8 PM CDT 413.86 362.11 40,011
6/19/2019 9 PM CDT 413.96 362.00 39,592
6/19/2019 10 PM CDT 413.92 362.02 39,636
6/19/2019 11 PM CDT 413.97 362.07 39,966
6/20/2019 12 AM CDT 414.04 362.02 39,941
6/20/2019 1 AM CDT 414.00 362.04 39,879
6/20/2019 2 AM CDT 413.90 362.04 39,760
6/20/2019 3 AM CDT 413.82 362.09 39,874
6/20/2019 4 AM CDT 413.75 362.04 40,086
6/20/2019 5 AM CDT 413.84 362.04 39,907
6/20/2019 6 AM CDT 413.90 362.05 39,907
6/20/2019 7 AM CDT 413.83 362.03 40,132
6/20/2019 8 AM CDT 413.73 362.31 41,875
6/20/2019 9 AM CDT 413.73 362.68 48,226
6/20/2019 10 AM CDT 413.73 362.90 49,032
6/20/2019 11 AM CDT 413.67 363.04 49,584
6/20/2019 12 PM CDT 413.65 363.11 50,122
6/20/2019 1 PM CDT 413.64 363.10 50,130
6/20/2019 2 PM CDT 413.68 363.11 50,033
6/20/2019 3 PM CDT 413.68 363.12 49,698
6/20/2019 4 PM CDT 413.75 363.22 49,743
6/20/2019 5 PM CDT 413.73 363.19 49,573
6/20/2019 6 PM CDT 413.85 363.20 49,661

Elevations are in feet above sea level. Discharges are in cubic feet per second and are reported at the end of the hour.